sensor_id;sensor_type;location;lat;lon;timestamp;pressure;altitude;pressure_sealevel;temperature;humidity
18850;BME280;4989;48.772;9.154;2022-10-22T00:02:17;97779.22;;;13.89;100.00
18850;BME280;4989;48.772;9.154;2022-10-22T00:07:22;97787.81;;;13.79;100.00
18850;BME280;4989;48.772;9.154;2022-10-22T00:12:25;97766.25;;;13.71;100.00
18850;BME280;4989;48.772;9.154;2022-10-22T00:17:27;97769.88;;;13.68;100.00
18850;BME280;4989;48.772;9.154;2022-10-22T00:22:29;97758.94;;;13.68;100.00
18850;BME280;4989;48.772;9.154;2022-10-22T00:27:32;97750.09;;;13.64;100.00
18850;BME280;4989;48.772;9.154;2022-10-22T00:32:34;97777.41;;;13.64;100.00
18850;BME280;4989;48.772;9.154;2022-10-22T00:37:37;97778.06;;;13.68;100.00
18850;BME280;4989;48.772;9.154;2022-10-22T00:42:39;97777.16;;;13.71;100.00
18850;BME280;4989;48.772;9.154;2022-10-22T00:48:04;97781.09;;;13.70;100.00
18850;BME280;4989;48.772;9.154;2022-10-22T00:53:21;97772.88;;;13.70;100.00
18850;BME280;4989;48.772;9.154;2022-10-22T00:58:28;97753.16;;;13.66;100.00
18850;BME280;4989;48.772;9.154;2022-10-22T01:03:32;97758.00;;;13.62;100.00
18850;BME280;4989;48.772;9.154;2022-10-22T01:14:28;97745.53;;;13.61;100.00
18850;BME280;4989;48.772;9.154;2022-10-22T01:30:13;97722.28;;;13.47;100.00
18850;BME280;4989;48.772;9.154;2022-10-22T01:35:24;97721.81;;;13.49;100.00
18850;BME280;4989;48.772;9.154;2022-10-22T01:40:28;97750.66;;;13.50;100.00
18850;BME280;4989;48.772;9.154;2022-10-22T01:45:43;97746.69;;;13.51;100.00
18850;BME280;4989;48.772;9.154;2022-10-22T02:06:32;97748.72;;;13.60;100.00
18850;BME280;4989;48.772;9.154;2022-10-22T02:11:36;97764.06;;;13.66;100.00
18850;BME280;4989;48.772;9.154;2022-10-22T02:16:42;97772.78;;;13.74;100.00
18850;BME280;4989;48.772;9.154;2022-10-22T02:21:45;97747.91;;;13.81;100.00
18850;BME280;4989;48.772;9.154;2022-10-22T02:33:16;97759.75;;;13.78;100.00
18850;BME280;4989;48.772;9.154;2022-10-22T02:37:55;97750.94;;;13.74;100.00
18850;BME280;4989;48.772;9.154;2022-10-22T02:42:58;97753.78;;;13.70;100.00
18850;BME280;4989;48.772;9.154;2022-10-22T02:48:01;97768.69;;;13.79;100.00
18850;BME280;4989;48.772;9.154;2022-10-22T02:53:03;97751.72;;;13.84;100.00
18850;BME280;4989;48.772;9.154;2022-10-22T02:58:05;97757.03;;;13.87;100.00
18850;BME280;4989;48.772;9.154;2022-10-22T03:03:08;97748.53;;;13.85;100.00
18850;BME280;4989;48.772;9.154;2022-10-22T03:08:10;97733.34;;;13.84;100.00
18850;BME280;4989;48.772;9.154;2022-10-22T03:13:13;97733.53;;;13.90;100.00
18850;BME280;4989;48.772;9.154;2022-10-22T03:18:16;97743.25;;;13.91;100.00
18850;BME280;4989;48.772;9.154;2022-10-22T03:23:19;97726.56;;;13.89;100.00
18850;BME280;4989;48.772;9.154;2022-10-22T03:28:21;97721.09;;;13.89;100.00
18850;BME280;4989;48.772;9.154;2022-10-22T03:33:24;97735.59;;;13.77;100.00
18850;BME280;4989;48.772;9.154;2022-10-22T03:38:26;97731.81;;;13.74;100.00
18850;BME280;4989;48.772;9.154;2022-10-22T03:43:29;97716.78;;;13.79;100.00
18850;BME280;4989;48.772;9.154;2022-10-22T03:48:32;97735.59;;;13.77;100.00
18850;BME280;4989;48.772;9.154;2022-10-22T03:53:34;97750.28;;;13.70;100.00
18850;BME280;4989;48.772;9.154;2022-10-22T03:58:38;97753.72;;;13.61;100.00
18850;BME280;4989;48.772;9.154;2022-10-22T04:03:41;97734.59;;;13.61;100.00
18850;BME280;4989;48.772;9.154;2022-10-22T04:08:44;97734.00;;;13.57;100.00
18850;BME280;4989;48.772;9.154;2022-10-22T04:13:47;97753.47;;;13.68;100.00
18850;BME280;4989;48.772;9.154;2022-10-22T04:18:50;97776.41;;;13.71;100.00
18850;BME280;4989;48.772;9.154;2022-10-22T04:23:53;97769.00;;;13.81;100.00
18850;BME280;4989;48.772;9.154;2022-10-22T04:28:55;97757.22;;;13.93;100.00
18850;BME280;4989;48.772;9.154;2022-10-22T04:33:59;97751.44;;;13.91;100.00
18850;BME280;4989;48.772;9.154;2022-10-22T04:39:02;97748.41;;;13.89;100.00
18850;BME280;4989;48.772;9.154;2022-10-22T04:44:06;97761.75;;;13.87;100.00
18850;BME280;4989;48.772;9.154;2022-10-22T04:49:17;97778.28;;;13.83;100.00
18850;BME280;4989;48.772;9.154;2022-10-22T04:54:20;97772.03;;;13.83;100.00
18850;BME280;4989;48.772;9.154;2022-10-22T04:59:23;97773.44;;;13.87;100.00
18850;BME280;4989;48.772;9.154;2022-10-22T05:04:25;97775.72;;;13.89;100.00
18850;BME280;4989;48.772;9.154;2022-10-22T05:09:27;97778.28;;;13.83;100.00
18850;BME280;4989;48.772;9.154;2022-10-22T05:14:30;97781.13;;;13.80;100.00
18850;BME280;4989;48.772;9.154;2022-10-22T05:19:32;97777.06;;;13.84;100.00
18850;BME280;4989;48.772;9.154;2022-10-22T05:24:35;97782.25;;;13.91;100.00
18850;BME280;4989;48.772;9.154;2022-10-22T05:29:38;97805.94;;;13.94;100.00
18850;BME280;4989;48.772;9.154;2022-10-22T05:34:40;97808.25;;;13.96;100.00
18850;BME280;4989;48.772;9.154;2022-10-22T05:39:43;97832.25;;;14.01;100.00
18850;BME280;4989;48.772;9.154;2022-10-22T05:44:45;97850.94;;;14.03;100.00
18850;BME280;4989;48.772;9.154;2022-10-22T05:49:49;97866.56;;;14.02;100.00
18850;BME280;4989;48.772;9.154;2022-10-22T05:54:51;97881.44;;;14.01;100.00
18850;BME280;4989;48.772;9.154;2022-10-22T05:59:53;97885.50;;;13.96;100.00
18850;BME280;4989;48.772;9.154;2022-10-22T06:04:56;97883.25;;;13.95;100.00
18850;BME280;4989;48.772;9.154;2022-10-22T06:09:59;97890.97;;;13.96;100.00
18850;BME280;4989;48.772;9.154;2022-10-22T06:15:01;97908.88;;;13.97;100.00
18850;BME280;4989;48.772;9.154;2022-10-22T06:20:04;97912.69;;;14.00;100.00
18850;BME280;4989;48.772;9.154;2022-10-22T06:25:27;97913.34;;;14.04;100.00
18850;BME280;4989;48.772;9.154;2022-10-22T06:30:29;97923.06;;;14.05;100.00
18850;BME280;4989;48.772;9.154;2022-10-22T06:35:31;97934.31;;;14.07;100.00
18850;BME280;4989;48.772;9.154;2022-10-22T06:40:34;97942.56;;;14.16;100.00
18850;BME280;4989;48.772;9.154;2022-10-22T06:45:37;97944.09;;;14.17;100.00
18850;BME280;4989;48.772;9.154;2022-10-22T06:50:40;97948.94;;;14.13;100.00
18850;BME280;4989;48.772;9.154;2022-10-22T06:55:43;97962.28;;;14.11;100.00
18850;BME280;4989;48.772;9.154;2022-10-22T07:00:45;97970.47;;;14.11;100.00
18850;BME280;4989;48.772;9.154;2022-10-22T07:05:48;97978.53;;;14.15;100.00
18850;BME280;4989;48.772;9.154;2022-10-22T07:10:50;97997.88;;;14.20;100.00
18850;BME280;4989;48.772;9.154;2022-10-22T07:15:53;97991.25;;;14.31;100.00
18850;BME280;4989;48.772;9.154;2022-10-22T07:20:56;97993.75;;;14.38;100.00
18850;BME280;4989;48.772;9.154;2022-10-22T07:25:59;97992.66;;;14.35;100.00
18850;BME280;4989;48.772;9.154;2022-10-22T07:31:04;97999.78;;;14.33;100.00
18850;BME280;4989;48.772;9.154;2022-10-22T07:36:09;98009.81;;;14.36;100.00
18850;BME280;4989;48.772;9.154;2022-10-22T07:41:13;98004.34;;;14.36;100.00
18850;BME280;4989;48.772;9.154;2022-10-22T07:46:16;98009.56;;;14.43;100.00
18850;BME280;4989;48.772;9.154;2022-10-22T07:51:18;98017.66;;;14.47;100.00
18850;BME280;4989;48.772;9.154;2022-10-22T07:56:21;98022.88;;;14.54;100.00
18850;BME280;4989;48.772;9.154;2022-10-22T08:01:23;98023.69;;;14.63;100.00
18850;BME280;4989;48.772;9.154;2022-10-22T08:06:26;98023.78;;;14.82;100.00
18850;BME280;4989;48.772;9.154;2022-10-22T08:11:28;98038.44;;;14.97;100.00
18850;BME280;4989;48.772;9.154;2022-10-22T08:16:30;98036.22;;;15.05;100.00
18850;BME280;4989;48.772;9.154;2022-10-22T08:21:33;98031.50;;;15.05;100.00
18850;BME280;4989;48.772;9.154;2022-10-22T08:26:36;98048.94;;;14.99;100.00
18850;BME280;4989;48.772;9.154;2022-10-22T08:31:38;98042.25;;;15.00;100.00
18850;BME280;4989;48.772;9.154;2022-10-22T08:36:41;98045.22;;;15.15;100.00
18850;BME280;4989;48.772;9.154;2022-10-22T08:52:24;98039.28;;;15.66;100.00
18850;BME280;4989;48.772;9.154;2022-10-22T08:57:31;98042.97;;;15.81;100.00
18850;BME280;4989;48.772;9.154;2022-10-22T09:07:42;98050.13;;;16.15;100.00
18850;BME280;4989;48.772;9.154;2022-10-22T09:12:47;98042.66;;;16.43;100.00
18850;BME280;4989;48.772;9.154;2022-10-22T09:23:10;98065.16;;;16.93;100.00
18850;BME280;4989;48.772;9.154;2022-10-22T09:28:19;98059.41;;;17.49;100.00
18850;BME280;4989;48.772;9.154;2022-10-22T09:33:26;98070.47;;;17.97;100.00
18850;BME280;4989;48.772;9.154;2022-10-22T09:38:31;98071.88;;;18.16;100.00
18850;BME280;4989;48.772;9.154;2022-10-22T09:43:34;98074.06;;;18.27;100.00
18850;BME280;4989;48.772;9.154;2022-10-22T09:48:40;98081.22;;;18.63;100.00
18850;BME280;4989;48.772;9.154;2022-10-22T09:53:46;98080.00;;;19.09;100.00
18850;BME280;4989;48.772;9.154;2022-10-22T09:58:54;98089.72;;;18.36;100.00
18850;BME280;4989;48.772;9.154;2022-10-22T10:04:06;98090.50;;;18.51;100.00
18850;BME280;4989;48.772;9.154;2022-10-22T10:09:20;98095.06;;;18.54;100.00
18850;BME280;4989;48.772;9.154;2022-10-22T10:40:57;98120.50;;;18.73;99.71
18850;BME280;4989;48.772;9.154;2022-10-22T10:51:14;98129.09;;;19.55;100.00
18850;BME280;4989;48.772;9.154;2022-10-22T10:56:43;98129.66;;;19.74;100.00
18850;BME280;4989;48.772;9.154;2022-10-22T11:07:00;98121.31;;;21.28;87.06
18850;BME280;4989;48.772;9.154;2022-10-22T11:12:23;98120.66;;;27.78;56.58
18850;BME280;4989;48.772;9.154;2022-10-22T11:17:38;98111.84;;;28.75;50.34
18850;BME280;4989;48.772;9.154;2022-10-22T11:23:04;98120.28;;;24.64;59.92
18850;BME280;4989;48.772;9.154;2022-10-22T11:28:33;98120.75;;;24.68;62.88
18850;BME280;4989;48.772;9.154;2022-10-22T11:39:06;98100.56;;;27.93;59.27
18850;BME280;4989;48.772;9.154;2022-10-22T11:44:11;98098.91;;;28.24;52.40
18850;BME280;4989;48.772;9.154;2022-10-22T11:49:27;98088.47;;;27.45;54.49
18850;BME280;4989;48.772;9.154;2022-10-22T11:54:44;98100.06;;;28.29;48.59
18850;BME280;4989;48.772;9.154;2022-10-22T11:59:49;98087.97;;;28.13;50.88
18850;BME280;4989;48.772;9.154;2022-10-22T12:04:53;98099.38;;;28.02;52.99
18850;BME280;4989;48.772;9.154;2022-10-22T12:09:57;98095.72;;;26.89;62.43
18850;BME280;4989;48.772;9.154;2022-10-22T12:15:00;98101.91;;;26.82;62.15
18850;BME280;4989;48.772;9.154;2022-10-22T12:20:11;98085.94;;;25.83;61.84
18850;BME280;4989;48.772;9.154;2022-10-22T12:25:29;98095.28;;;24.06;65.80
18850;BME280;4989;48.772;9.154;2022-10-22T12:30:37;98080.03;;;23.38;66.77
18850;BME280;4989;48.772;9.154;2022-10-22T12:35:44;98086.09;;;23.02;70.83
18850;BME280;4989;48.772;9.154;2022-10-22T12:40:49;98063.81;;;25.41;56.74
18850;BME280;4989;48.772;9.154;2022-10-22T12:45:52;98064.53;;;27.36;51.80
18850;BME280;4989;48.772;9.154;2022-10-22T12:50:59;98074.53;;;27.58;47.16
18850;BME280;4989;48.772;9.154;2022-10-22T12:56:11;98068.31;;;25.20;54.27
18850;BME280;4989;48.772;9.154;2022-10-22T13:01:15;98073.69;;;22.75;56.27
18850;BME280;4989;48.772;9.154;2022-10-22T13:11:21;98070.66;;;21.85;67.48
18850;BME280;4989;48.772;9.154;2022-10-22T13:16:24;98066.84;;;21.77;68.51
18850;BME280;4989;48.772;9.154;2022-10-22T13:21:34;98059.66;;;21.54;69.47
18850;BME280;4989;48.772;9.154;2022-10-22T13:26:38;98065.31;;;21.01;63.93
18850;BME280;4989;48.772;9.154;2022-10-22T13:31:49;98068.31;;;20.72;64.83
18850;BME280;4989;48.772;9.154;2022-10-22T13:36:53;98056.28;;;20.75;69.03
18850;BME280;4989;48.772;9.154;2022-10-22T13:41:55;98058.16;;;20.57;65.84
18850;BME280;4989;48.772;9.154;2022-10-22T13:46:57;98061.19;;;20.39;67.68
18850;BME280;4989;48.772;9.154;2022-10-22T13:52:00;98065.97;;;20.39;66.91
18850;BME280;4989;48.772;9.154;2022-10-22T13:57:04;98063.84;;;20.28;66.65
18850;BME280;4989;48.772;9.154;2022-10-22T14:02:10;98058.19;;;20.37;66.71
18850;BME280;4989;48.772;9.154;2022-10-22T14:07:15;98056.09;;;20.52;65.72
18850;BME280;4989;48.772;9.154;2022-10-22T14:12:18;98062.72;;;20.61;65.21
18850;BME280;4989;48.772;9.154;2022-10-22T14:17:20;98058.56;;;20.50;65.51
18850;BME280;4989;48.772;9.154;2022-10-22T14:22:26;98056.09;;;20.32;65.29
18850;BME280;4989;48.772;9.154;2022-10-22T14:27:29;98052.53;;;20.26;67.97
18850;BME280;4989;48.772;9.154;2022-10-22T14:32:31;98057.22;;;20.20;67.60
18850;BME280;4989;48.772;9.154;2022-10-22T14:37:34;98056.94;;;20.18;66.71
18850;BME280;4989;48.772;9.154;2022-10-22T14:42:39;98058.88;;;20.11;70.12
18850;BME280;4989;48.772;9.154;2022-10-22T14:47:43;98057.44;;;19.96;68.92
18850;BME280;4989;48.772;9.154;2022-10-22T14:52:46;98057.66;;;19.92;68.36
18850;BME280;4989;48.772;9.154;2022-10-22T14:57:50;98063.88;;;20.07;80.82
18850;BME280;4989;48.772;9.154;2022-10-22T15:02:53;98060.97;;;19.96;73.35
18850;BME280;4989;48.772;9.154;2022-10-22T15:07:56;98066.47;;;19.76;72.99
18850;BME280;4989;48.772;9.154;2022-10-22T15:13:00;98073.91;;;19.70;77.27
18850;BME280;4989;48.772;9.154;2022-10-22T15:18:02;98077.00;;;19.42;74.46
18850;BME280;4989;48.772;9.154;2022-10-22T15:23:05;98079.66;;;19.51;72.79
18850;BME280;4989;48.772;9.154;2022-10-22T15:28:07;98083.66;;;19.50;69.74
18850;BME280;4989;48.772;9.154;2022-10-22T15:33:11;98081.00;;;19.41;70.41
18850;BME280;4989;48.772;9.154;2022-10-22T15:38:13;98073.63;;;19.32;69.44
18850;BME280;4989;48.772;9.154;2022-10-22T15:43:16;98077.53;;;19.26;69.05
18850;BME280;4989;48.772;9.154;2022-10-22T15:48:18;98078.41;;;19.17;69.66
18850;BME280;4989;48.772;9.154;2022-10-22T15:53:21;98071.00;;;19.08;73.08
18850;BME280;4989;48.772;9.154;2022-10-22T15:58:23;98078.22;;;18.91;71.14
18850;BME280;4989;48.772;9.154;2022-10-22T16:03:25;98081.03;;;18.67;71.72
18850;BME280;4989;48.772;9.154;2022-10-22T16:08:28;98089.34;;;18.82;72.57
18850;BME280;4989;48.772;9.154;2022-10-22T16:13:30;98094.56;;;18.80;70.25
18850;BME280;4989;48.772;9.154;2022-10-22T16:18:33;98097.28;;;18.65;73.36
18850;BME280;4989;48.772;9.154;2022-10-22T16:23:35;98091.47;;;18.48;72.89
18850;BME280;4989;48.772;9.154;2022-10-22T16:28:38;98092.63;;;18.56;76.13
18850;BME280;4989;48.772;9.154;2022-10-22T16:33:41;98083.50;;;18.50;85.60
18850;BME280;4989;48.772;9.154;2022-10-22T16:38:51;98092.41;;;18.45;81.89
18850;BME280;4989;48.772;9.154;2022-10-22T16:43:54;98103.00;;;18.22;81.89
18850;BME280;4989;48.772;9.154;2022-10-22T16:48:57;98108.47;;;17.74;85.89
18850;BME280;4989;48.772;9.154;2022-10-22T16:53:59;98107.41;;;17.38;90.40
18850;BME280;4989;48.772;9.154;2022-10-22T16:59:02;98118.63;;;17.26;90.55
18850;BME280;4989;48.772;9.154;2022-10-22T17:04:04;98120.19;;;17.08;92.04
18850;BME280;4989;48.772;9.154;2022-10-22T17:09:06;98119.91;;;16.97;94.75
18850;BME280;4989;48.772;9.154;2022-10-22T17:14:09;98116.13;;;16.76;98.36
18850;BME280;4989;48.772;9.154;2022-10-22T17:19:13;98112.47;;;16.79;99.28
18850;BME280;4989;48.772;9.154;2022-10-22T17:24:17;98114.28;;;16.64;100.00
18850;BME280;4989;48.772;9.154;2022-10-22T17:29:22;98120.41;;;16.68;95.46
18850;BME280;4989;48.772;9.154;2022-10-22T17:34:26;98119.13;;;16.97;89.48
18850;BME280;4989;48.772;9.154;2022-10-22T17:39:31;98120.00;;;17.12;84.15
18850;BME280;4989;48.772;9.154;2022-10-22T17:44:33;98121.41;;;17.50;80.12
18850;BME280;4989;48.772;9.154;2022-10-22T17:49:36;98141.38;;;17.59;78.77
18850;BME280;4989;48.772;9.154;2022-10-22T17:54:40;98146.69;;;17.63;77.33
18850;BME280;4989;48.772;9.154;2022-10-22T17:59:43;98142.41;;;17.71;82.77
18850;BME280;4989;48.772;9.154;2022-10-22T18:04:49;98147.72;;;17.75;77.81
18850;BME280;4989;48.772;9.154;2022-10-22T18:09:53;98137.75;;;17.53;77.73
18850;BME280;4989;48.772;9.154;2022-10-22T18:14:56;98134.09;;;17.47;79.95
18850;BME280;4989;48.772;9.154;2022-10-22T18:19:58;98141.63;;;17.71;86.62
18850;BME280;4989;48.772;9.154;2022-10-22T18:25:01;98140.50;;;18.35;100.00
18850;BME280;4989;48.772;9.154;2022-10-22T18:30:04;98133.59;;;18.15;89.04
18850;BME280;4989;48.772;9.154;2022-10-22T18:35:06;98137.75;;;17.87;90.67
18850;BME280;4989;48.772;9.154;2022-10-22T18:40:09;98135.84;;;18.02;91.68
18850;BME280;4989;48.772;9.154;2022-10-22T18:45:16;98138.31;;;17.57;87.48
18850;BME280;4989;48.772;9.154;2022-10-22T18:50:18;98131.16;;;17.08;93.42
18850;BME280;4989;48.772;9.154;2022-10-22T18:55:21;98139.88;;;17.07;95.31
18850;BME280;4989;48.772;9.154;2022-10-22T19:00:23;98132.22;;;17.20;94.33
18850;BME280;4989;48.772;9.154;2022-10-22T19:05:27;98128.25;;;17.54;99.18
18850;BME280;4989;48.772;9.154;2022-10-22T19:10:30;98126.53;;;17.66;93.51
18850;BME280;4989;48.772;9.154;2022-10-22T19:15:35;98125.50;;;17.12;88.49
18850;BME280;4989;48.772;9.154;2022-10-22T19:20:37;98135.03;;;16.92;92.68
18850;BME280;4989;48.772;9.154;2022-10-22T19:25:40;98135.03;;;16.92;94.00
18850;BME280;4989;48.772;9.154;2022-10-22T19:30:42;98129.81;;;17.04;98.51
18850;BME280;4989;48.772;9.154;2022-10-22T19:35:46;98129.63;;;17.16;87.23
18850;BME280;4989;48.772;9.154;2022-10-22T19:40:48;98135.03;;;16.74;85.93
18850;BME280;4989;48.772;9.154;2022-10-22T19:45:52;98129.72;;;16.52;87.82
18850;BME280;4989;48.772;9.154;2022-10-22T19:51:02;98121.44;;;16.43;89.27
18850;BME280;4989;48.772;9.154;2022-10-22T19:56:07;98118.25;;;16.35;90.77
18850;BME280;4989;48.772;9.154;2022-10-22T20:01:12;98115.53;;;16.26;92.22
18850;BME280;4989;48.772;9.154;2022-10-22T20:06:16;98125.41;;;16.14;94.13
18850;BME280;4989;48.772;9.154;2022-10-22T20:11:21;98132.28;;;16.10;96.20
18850;BME280;4989;48.772;9.154;2022-10-22T20:16:26;98133.78;;;16.11;97.75
18850;BME280;4989;48.772;9.154;2022-10-22T20:21:33;98139.28;;;16.11;99.60
18850;BME280;4989;48.772;9.154;2022-10-22T20:26:35;98136.53;;;16.11;100.00
18850;BME280;4989;48.772;9.154;2022-10-22T20:31:38;98140.19;;;16.08;100.00
18850;BME280;4989;48.772;9.154;2022-10-22T20:36:40;98138.63;;;15.97;100.00
18850;BME280;4989;48.772;9.154;2022-10-22T20:41:43;98143.81;;;15.95;100.00
18850;BME280;4989;48.772;9.154;2022-10-22T20:46:45;98145.63;;;15.89;100.00
18850;BME280;4989;48.772;9.154;2022-10-22T20:51:48;98144.38;;;15.81;100.00
18850;BME280;4989;48.772;9.154;2022-10-22T20:56:51;98145.59;;;15.80;100.00
18850;BME280;4989;48.772;9.154;2022-10-22T21:01:53;98143.44;;;15.75;100.00
18850;BME280;4989;48.772;9.154;2022-10-22T21:06:56;98140.72;;;15.75;100.00
18850;BME280;4989;48.772;9.154;2022-10-22T21:11:59;98132.84;;;15.86;100.00
18850;BME280;4989;48.772;9.154;2022-10-22T21:17:04;98135.38;;;15.71;100.00
18850;BME280;4989;48.772;9.154;2022-10-22T21:22:08;98125.19;;;15.72;100.00
18850;BME280;4989;48.772;9.154;2022-10-22T21:27:11;98125.78;;;15.76;100.00
18850;BME280;4989;48.772;9.154;2022-10-22T21:32:14;98131.75;;;15.84;100.00
18850;BME280;4989;48.772;9.154;2022-10-22T21:37:16;98139.66;;;15.82;100.00
18850;BME280;4989;48.772;9.154;2022-10-22T21:42:19;98132.81;;;15.77;100.00
18850;BME280;4989;48.772;9.154;2022-10-22T21:47:21;98133.63;;;16.14;100.00
18850;BME280;4989;48.772;9.154;2022-10-22T21:52:24;98132.13;;;16.22;100.00
18850;BME280;4989;48.772;9.154;2022-10-22T21:57:26;98122.50;;;16.09;100.00
18850;BME280;4989;48.772;9.154;2022-10-22T22:02:30;98127.38;;;16.05;100.00
18850;BME280;4989;48.772;9.154;2022-10-22T22:07:33;98122.19;;;15.97;100.00
18850;BME280;4989;48.772;9.154;2022-10-22T22:12:35;98123.06;;;15.85;100.00
18850;BME280;4989;48.772;9.154;2022-10-22T22:17:37;98125.50;;;15.74;100.00
18850;BME280;4989;48.772;9.154;2022-10-22T22:22:40;98124.88;;;15.79;100.00
18850;BME280;4989;48.772;9.154;2022-10-22T22:27:43;98137.66;;;15.73;100.00
18850;BME280;4989;48.772;9.154;2022-10-22T22:32:46;98135.19;;;15.66;100.00
18850;BME280;4989;48.772;9.154;2022-10-22T22:37:49;98126.00;;;15.50;100.00
18850;BME280;4989;48.772;9.154;2022-10-22T22:42:51;98130.72;;;15.50;100.00
18850;BME280;4989;48.772;9.154;2022-10-22T22:47:53;98124.47;;;15.49;100.00
18850;BME280;4989;48.772;9.154;2022-10-22T22:52:56;98120.81;;;15.43;100.00
18850;BME280;4989;48.772;9.154;2022-10-22T22:57:58;98124.13;;;15.38;100.00
18850;BME280;4989;48.772;9.154;2022-10-22T23:03:01;98107.81;;;15.34;100.00
18850;BME280;4989;48.772;9.154;2022-10-22T23:08:03;98116.88;;;15.53;100.00
18850;BME280;4989;48.772;9.154;2022-10-22T23:13:06;98114.72;;;15.48;100.00
18850;BME280;4989;48.772;9.154;2022-10-22T23:18:08;98101.94;;;15.54;100.00
18850;BME280;4989;48.772;9.154;2022-10-22T23:23:10;98092.06;;;15.57;100.00
18850;BME280;4989;48.772;9.154;2022-10-22T23:28:13;98089.44;;;15.44;100.00
18850;BME280;4989;48.772;9.154;2022-10-22T23:33:15;98089.84;;;15.33;100.00
18850;BME280;4989;48.772;9.154;2022-10-22T23:38:20;98092.38;;;15.19;100.00
18850;BME280;4989;48.772;9.154;2022-10-22T23:43:25;98089.09;;;15.33;100.00
18850;BME280;4989;48.772;9.154;2022-10-22T23:48:28;98084.13;;;15.50;100.00
18850;BME280;4989;48.772;9.154;2022-10-22T23:53:31;98069.81;;;15.46;100.00
18850;BME280;4989;48.772;9.154;2022-10-22T23:58:34;98068.84;;;15.30;100.00
